Saint Marys, Indiana
Current Conditions -  °F | °C
As of 8:54 AM on Wednesday 26 Nov 2014 (Local Time) from KSBN Reporting Station
Overcast Overcast  
Wind Chill: 19°   Ceiling: 1600
Heat Index: 26°   Visibility: 10mi
Dew Point: 19°   Wind: 6mph
Humidity: 75%   Direction: 100°E
Pressure: 30.17"   Gusts: NA
Location:  41.7197°N, 86.2504°W
Report Text: KSBN 261354Z 10005KT 10SM OVC016 M03/M07 A3017 RMK AO2 SLP227 T10331072
Loading
Personal Weather Stations






























Interactive Weather Map New forecast layout! Learn more

10-Day Weather Forecast

Advertisements
Track Severe Weather on mobile